createdAt,value
2019-01-12T00:00:31.478Z,89.02
2019-01-12T00:03:04.132Z,88.88
2019-01-12T00:05:37.055Z,88.83
2019-01-12T00:08:09.859Z,88.55
2019-01-12T00:10:42.476Z,89.08
2019-01-12T00:13:15.130Z,89.36
2019-01-12T00:15:47.786Z,89.08
2019-01-12T00:18:20.447Z,88.88
2019-01-12T00:20:53.041Z,88.49
2019-01-12T00:23:25.666Z,88.46
2019-01-12T00:25:58.308Z,88.86
2019-01-12T00:28:30.863Z,89.17
2019-01-12T00:31:03.511Z,89.38
2019-01-12T00:33:36.137Z,89.38
2019-01-12T00:36:08.732Z,89.30
2019-01-12T00:38:43.317Z,89.37
2019-01-12T00:41:16.003Z,89.53
2019-01-12T00:43:48.667Z,89.30
2019-01-12T00:46:21.255Z,89.39
2019-01-12T00:48:53.868Z,89.21
2019-01-12T00:51:26.486Z,89.35
2019-01-12T00:53:59.123Z,89.72
2019-01-12T00:56:31.748Z,89.64
2019-01-12T00:59:04.593Z,89.61
2019-01-12T01:01:37.228Z,89.59
2019-01-12T01:04:09.795Z,89.61
2019-01-12T01:06:42.468Z,89.36
2019-01-12T01:09:15.222Z,89.34
2019-01-12T01:11:47.939Z,89.21
2019-01-12T01:14:21.565Z,89.42
2019-01-12T01:16:54.192Z,89.20
2019-01-12T01:19:27.067Z,89.51
2019-01-12T01:21:59.697Z,89.45
2019-01-12T01:24:32.378Z,89.42
2019-01-12T01:27:05.140Z,89.63
2019-01-12T01:29:37.759Z,89.81
2019-01-12T01:32:10.425Z,89.85
2019-01-12T01:34:43.077Z,89.92
2019-01-12T01:37:15.705Z,89.96
2019-01-12T01:39:48.419Z,90.12
2019-01-12T01:42:21.045Z,90.32
2019-01-12T01:44:55.012Z,89.86
2019-01-12T01:47:27.747Z,89.16
2019-01-12T01:50:00.467Z,88.97
2019-01-12T01:52:33.085Z,88.75
2019-01-12T01:55:06.235Z,88.82
2019-01-12T01:57:38.867Z,89.16
2019-01-12T02:00:16.297Z,89.46
2019-01-12T02:02:48.916Z,89.63
2019-01-12T02:05:21.579Z,89.57
2019-01-12T02:07:54.132Z,89.80
2019-01-12T02:10:26.789Z,90.10
2019-01-12T02:12:59.431Z,90.08
2019-01-12T02:15:32.265Z,90.21
2019-01-12T02:18:04.956Z,90.18
2019-01-12T02:20:37.559Z,90.10
2019-01-12T02:23:10.204Z,90.11
2019-01-12T02:25:42.842Z,89.98
2019-01-12T02:28:15.463Z,89.81
2019-01-12T02:30:48.011Z,89.36
2019-01-12T02:33:20.613Z,88.77
2019-01-12T02:35:53.147Z,88.86
2019-01-12T02:38:25.794Z,89.11
2019-01-12T02:40:58.957Z,89.33
2019-01-12T02:43:31.576Z,89.31
2019-01-12T02:46:04.114Z,88.98
2019-01-12T02:48:36.753Z,88.79
2019-01-12T02:51:09.276Z,88.84
2019-01-12T02:53:41.900Z,89.06
2019-01-12T02:56:14.616Z,88.42
2019-01-12T02:58:47.194Z,88.43
2019-01-12T03:01:19.933Z,88.54
2019-01-12T03:03:52.555Z,88.51
2019-01-12T03:06:25.189Z,88.59
2019-01-12T03:08:57.814Z,88.96
2019-01-12T03:11:33.467Z,89.45
2019-01-12T03:14:06.261Z,89.90
2019-01-12T03:16:38.975Z,89.97
2019-01-12T03:19:11.790Z,90.03
2019-01-12T03:21:44.654Z,89.98
2019-01-12T03:24:17.343Z,89.93
2019-01-12T03:26:49.997Z,89.41
2019-01-12T03:29:22.650Z,89.32
2019-01-12T03:31:55.491Z,89.57
2019-01-12T03:34:30.600Z,89.01
2019-01-12T03:37:03.187Z,89.14
2019-01-12T03:39:35.819Z,88.82
2019-01-12T03:42:08.500Z,88.74
2019-01-12T03:44:41.091Z,88.88
2019-01-12T03:47:13.675Z,88.80
2019-01-12T03:49:46.238Z,88.92
2019-01-12T03:52:18.829Z,88.99
2019-01-12T03:54:51.497Z,88.99
2019-01-12T03:57:24.079Z,88.94
2019-01-12T03:59:56.677Z,89.24
2019-01-12T04:02:29.360Z,89.31
2019-01-12T04:05:01.934Z,88.99
2019-01-12T04:07:34.552Z,89.10
2019-01-12T04:10:08.472Z,89.14
2019-01-12T04:12:41.103Z,89.12
2019-01-12T04:15:14.181Z,89.09
2019-01-12T04:17:47.016Z,89.29
2019-01-12T04:20:19.772Z,89.28
2019-01-12T04:22:52.608Z,89.36
2019-01-12T04:25:33.197Z,89.51
2019-01-12T04:27:59.633Z,89.52
2019-01-12T04:30:32.251Z,89.77
2019-01-12T04:33:04.950Z,89.96
2019-01-12T04:35:37.585Z,89.92
2019-01-12T04:38:10.266Z,89.82
2019-01-12T04:40:42.950Z,89.71
2019-01-12T04:43:15.589Z,88.96
2019-01-12T04:45:48.208Z,89.02
2019-01-12T04:48:20.836Z,89.10
2019-01-12T04:50:53.469Z,89.35
2019-01-12T04:53:26.133Z,89.55
2019-01-12T04:55:58.777Z,89.58
2019-01-12T04:58:31.415Z,89.47
2019-01-12T05:01:04.074Z,89.23
2019-01-12T05:03:36.857Z,89.04
2019-01-12T05:06:09.507Z,89.29
2019-01-12T05:08:42.141Z,89.50
2019-01-12T05:11:14.693Z,89.71
2019-01-12T05:13:47.278Z,89.90
2019-01-12T05:16:20.163Z,90.19
2019-01-12T05:18:52.814Z,90.15
2019-01-12T05:21:25.388Z,90.10
2019-01-12T05:23:58.010Z,90.10
2019-01-12T05:26:30.618Z,90.06
2019-01-12T05:29:03.244Z,90.01
2019-01-12T05:31:36.008Z,89.96
2019-01-12T05:34:08.629Z,90.01
2019-01-12T05:36:41.250Z,90.05
2019-01-12T05:39:14.928Z,90.07
2019-01-12T05:41:47.560Z,90.13
2019-01-12T05:44:20.169Z,89.96
2019-01-12T05:46:52.814Z,90.17
2019-01-12T05:49:25.437Z,89.64
2019-01-12T05:51:58.074Z,89.76
2019-01-12T05:54:30.815Z,90.17
2019-01-12T05:57:03.481Z,90.13
2019-01-12T05:59:38.255Z,89.84
2019-01-12T06:02:10.861Z,89.74
2019-01-12T06:04:43.495Z,89.73
2019-01-12T06:07:16.078Z,89.59
2019-01-12T06:09:50.751Z,89.54
2019-01-12T06:12:23.295Z,89.56
2019-01-12T06:14:55.969Z,89.54
2019-01-12T06:17:28.634Z,89.58
2019-01-12T06:20:01.263Z,89.61
2019-01-12T06:22:33.872Z,89.45
2019-01-12T06:25:07.277Z,89.67
2019-01-12T06:27:39.826Z,90.05
2019-01-12T06:30:19.683Z,90.26
2019-01-12T06:32:52.321Z,90.22
2019-01-12T06:35:24.956Z,90.21
2019-01-12T06:37:57.512Z,90.36
2019-01-12T06:40:30.166Z,90.18
2019-01-12T06:43:02.779Z,90.13
2019-01-12T06:45:35.384Z,90.14
2019-01-12T06:48:08.954Z,89.96
2019-01-12T06:50:41.994Z,89.98
2019-01-12T06:53:14.543Z,90.21
2019-01-12T06:55:47.191Z,90.64
2019-01-12T06:58:19.753Z,90.53
2019-01-12T07:00:52.784Z,89.96
2019-01-12T07:03:25.358Z,90.43
2019-01-12T07:05:57.937Z,90.69
2019-01-12T07:08:30.669Z,90.25
2019-01-12T07:11:03.258Z,89.72
2019-01-12T07:13:35.908Z,90.25
2019-01-12T07:16:08.543Z,90.54
2019-01-12T07:18:41.260Z,90.80
2019-01-12T07:21:13.874Z,90.93
2019-01-12T07:23:47.087Z,90.65
2019-01-12T07:26:19.666Z,90.26
2019-01-12T07:28:52.225Z,90.51
2019-01-12T07:31:24.852Z,90.27
2019-01-12T07:33:59.130Z,89.83
2019-01-12T07:36:31.857Z,90.00
2019-01-12T07:39:06.993Z,90.17
2019-01-12T07:41:39.631Z,90.22
2019-01-12T07:44:12.305Z,90.36
2019-01-12T07:46:44.951Z,90.33
2019-01-12T07:49:17.543Z,90.16
2019-01-12T07:51:50.429Z,90.05
2019-01-12T07:54:23.029Z,89.57
2019-01-12T07:56:55.578Z,89.51
2019-01-12T07:59:28.155Z,89.34
2019-01-12T08:02:00.732Z,89.10
2019-01-12T08:04:33.327Z,89.25
2019-01-12T08:07:05.968Z,88.71
2019-01-12T08:09:39.554Z,88.56
2019-01-12T08:12:12.155Z,88.39
2019-01-12T08:14:44.833Z,88.22
2019-01-12T08:17:17.419Z,88.07
2019-01-12T08:19:50.041Z,87.59
2019-01-12T08:22:22.802Z,87.04
2019-01-12T08:24:55.431Z,87.08
2019-01-12T08:27:28.069Z,86.53
2019-01-12T08:30:00.741Z,86.12
2019-01-12T08:32:34.417Z,86.20
2019-01-12T08:35:09.345Z,86.03
2019-01-12T08:37:41.865Z,85.51
2019-01-12T08:40:15.120Z,85.75
2019-01-12T08:42:47.800Z,86.34
2019-01-12T08:45:20.020Z,86.13
2019-01-12T08:47:52.944Z,84.81
2019-01-12T08:50:28.013Z,84.61
2019-01-12T08:53:00.657Z,85.66
2019-01-12T08:55:33.270Z,84.62
2019-01-12T08:58:05.929Z,85.12
2019-01-12T09:00:38.498Z,83.92
2019-01-12T09:03:11.133Z,84.01
2019-01-12T09:05:46.030Z,83.79
2019-01-12T09:08:18.680Z,85.45
2019-01-12T09:10:51.342Z,85.93
2019-01-12T09:13:23.993Z,84.80
2019-01-12T09:15:56.610Z,84.02
2019-01-12T09:18:29.218Z,83.63
2019-01-12T09:21:01.805Z,83.31
2019-01-12T09:23:34.364Z,83.23
2019-01-12T09:26:07.023Z,83.25
2019-01-12T09:28:39.618Z,82.67
2019-01-12T09:31:12.309Z,82.91
2019-01-12T09:33:44.940Z,82.83
2019-01-12T09:36:17.522Z,82.91
2019-01-12T09:38:50.141Z,82.26
2019-01-12T09:41:22.890Z,83.42
2019-01-12T09:43:55.587Z,82.69
2019-01-12T09:46:28.433Z,83.22
2019-01-12T09:49:01.074Z,82.33
2019-01-12T09:51:33.647Z,82.90
2019-01-12T09:54:06.307Z,81.53
2019-01-12T09:56:38.876Z,81.57
2019-01-12T09:59:11.505Z,81.35
2019-01-12T10:01:44.140Z,81.93
2019-01-12T10:04:16.767Z,80.27
2019-01-12T10:06:49.416Z,78.62
2019-01-12T10:09:22.051Z,77.58
2019-01-12T10:11:54.661Z,76.95
2019-01-12T10:14:27.330Z,77.15
2019-01-12T10:16:59.931Z,76.43
2019-01-12T10:19:32.598Z,77.03
2019-01-12T10:22:05.359Z,78.82
2019-01-12T10:24:38.197Z,80.32
2019-01-12T10:27:10.827Z,79.31
2019-01-12T10:29:43.493Z,79.03
2019-01-12T10:32:16.266Z,77.73
2019-01-12T10:34:48.863Z,77.39
2019-01-12T10:37:21.442Z,76.79
2019-01-12T10:39:54.119Z,77.90
2019-01-12T10:42:27.098Z,78.12
2019-01-12T10:44:59.724Z,78.57
2019-01-12T10:47:32.491Z,77.50
2019-01-12T10:50:07.522Z,78.43
2019-01-12T10:52:40.466Z,77.87
2019-01-12T10:55:14.089Z,76.05
2019-01-12T10:57:46.802Z,75.72
2019-01-12T11:00:24.055Z,78.07
2019-01-12T11:02:56.835Z,78.18
2019-01-12T11:05:29.651Z,77.82
2019-01-12T11:08:02.477Z,78.08
2019-01-12T11:10:35.404Z,79.51
2019-01-12T11:13:08.263Z,81.62
2019-01-12T11:15:41.087Z,79.56
2019-01-12T11:18:13.903Z,79.32
2019-01-12T11:20:48.909Z,79.31
2019-01-12T11:23:21.624Z,79.88
2019-01-12T11:25:55.320Z,77.72
2019-01-12T11:28:27.992Z,78.06
2019-01-12T11:31:00.713Z,77.53
2019-01-12T11:33:34.807Z,75.14
2019-01-12T11:36:07.504Z,74.71
2019-01-12T11:38:40.447Z,76.91
2019-01-12T11:41:14.026Z,78.13
2019-01-12T11:43:46.599Z,76.55
2019-01-12T11:46:20.510Z,76.19
2019-01-12T11:48:53.087Z,75.95
2019-01-12T11:51:25.725Z,76.78
2019-01-12T11:53:58.308Z,76.37
2019-01-12T11:56:30.872Z,76.25
2019-01-12T11:59:03.440Z,75.06
2019-01-12T12:01:36.040Z,74.27
2019-01-12T12:04:08.809Z,75.03
2019-01-12T12:06:41.400Z,73.22
2019-01-12T12:09:14.002Z,73.71
2019-01-12T12:11:46.642Z,74.10
2019-01-12T12:14:19.264Z,75.44
2019-01-12T12:16:51.867Z,76.41
2019-01-12T12:19:24.513Z,75.87
2019-01-12T12:21:57.121Z,75.42
2019-01-12T12:24:29.727Z,76.13
2019-01-12T12:27:02.263Z,77.84
2019-01-12T12:29:34.881Z,78.09
2019-01-12T12:32:07.458Z,76.69
2019-01-12T12:34:40.176Z,77.14
2019-01-12T12:37:12.739Z,75.78
2019-01-12T12:39:45.398Z,75.60
2019-01-12T12:42:17.906Z,75.58
2019-01-12T12:44:50.639Z,75.23
2019-01-12T12:47:23.192Z,74.21
2019-01-12T12:49:55.793Z,75.42
2019-01-12T12:52:28.411Z,75.84
2019-01-12T12:55:01.030Z,77.02
2019-01-12T12:57:33.626Z,77.39
2019-01-12T13:00:11.210Z,75.52
2019-01-12T13:02:43.776Z,76.30
2019-01-12T13:05:16.305Z,76.25
2019-01-12T13:07:49.046Z,75.62
2019-01-12T13:10:25.483Z,73.94
2019-01-12T13:12:58.301Z,72.68
2019-01-12T13:15:30.952Z,71.91
2019-01-12T13:18:03.631Z,70.39
2019-01-12T13:20:36.226Z,71.76
2019-01-12T13:23:08.865Z,72.81
2019-01-12T13:25:41.498Z,73.46
2019-01-12T13:28:14.406Z,74.06
2019-01-12T13:30:46.733Z,75.26
2019-01-12T13:33:19.638Z,75.99
2019-01-12T13:35:52.254Z,77.64
2019-01-12T13:38:24.992Z,78.20
2019-01-12T13:40:57.570Z,78.27
2019-01-12T13:43:30.190Z,78.36
2019-01-12T13:46:02.823Z,77.60
2019-01-12T13:48:35.384Z,78.64
2019-01-12T13:51:08.048Z,78.39
2019-01-12T13:53:40.700Z,78.73
2019-01-12T13:56:13.375Z,76.81
2019-01-12T13:58:46.002Z,77.86
2019-01-12T14:01:19.017Z,78.43
2019-01-12T14:03:51.626Z,77.81
2019-01-12T14:06:24.155Z,77.20
2019-01-12T14:08:56.747Z,76.56
2019-01-12T14:11:29.351Z,77.72
2019-01-12T14:14:02.006Z,77.57
2019-01-12T14:16:34.819Z,77.87
2019-01-12T14:19:07.441Z,78.67
2019-01-12T14:21:40.090Z,79.20
2019-01-12T14:24:12.789Z,79.79
2019-01-12T14:26:45.376Z,80.64
2019-01-12T14:29:18.092Z,80.72
2019-01-12T14:31:50.856Z,81.23
2019-01-12T14:34:23.530Z,80.82
2019-01-12T14:36:56.200Z,82.03
2019-01-12T14:39:28.853Z,81.98
2019-01-12T14:42:01.508Z,82.02
2019-01-12T14:44:34.175Z,82.25
2019-01-12T14:47:06.883Z,82.44
2019-01-12T14:49:39.499Z,82.90
2019-01-12T14:52:12.365Z,83.38
2019-01-12T14:54:45.050Z,83.37
2019-01-12T14:57:17.671Z,83.16
2019-01-12T14:59:50.303Z,83.50
2019-01-12T15:02:23.209Z,83.61
2019-01-12T15:04:56.002Z,83.88
2019-01-12T15:07:28.586Z,84.16
2019-01-12T15:10:01.208Z,84.47
2019-01-12T15:12:33.879Z,84.05
2019-01-12T15:15:08.345Z,84.00
2019-01-12T15:17:40.982Z,84.01
2019-01-12T15:20:22.616Z,83.84
2019-01-12T15:22:55.262Z,83.93
2019-01-12T15:25:27.907Z,84.10
2019-01-12T15:28:09.085Z,84.68
2019-01-12T15:30:39.493Z,85.00
2019-01-12T15:33:14.782Z,84.94
2019-01-12T15:35:47.644Z,85.09
2019-01-12T15:38:20.293Z,85.73
2019-01-12T15:40:52.935Z,85.72
2019-01-12T15:43:24.761Z,86.25
2019-01-12T15:45:57.372Z,86.62
2019-01-12T15:48:29.949Z,87.07
2019-01-12T15:51:02.701Z,87.23
2019-01-12T15:53:35.391Z,87.80
2019-01-12T15:56:07.950Z,87.80
2019-01-12T15:58:40.533Z,88.00
2019-01-12T16:01:13.527Z,88.16
2019-01-12T16:03:46.117Z,88.49
2019-01-12T16:06:18.808Z,88.49
2019-01-12T16:08:51.427Z,88.60
2019-01-12T16:11:23.997Z,88.66
2019-01-12T16:13:56.611Z,88.77
2019-01-12T16:16:29.309Z,88.56
2019-01-12T16:19:01.947Z,88.69
2019-01-12T16:21:34.649Z,88.85
2019-01-12T16:24:07.262Z,89.02
2019-01-12T16:26:39.902Z,89.31
2019-01-12T16:29:12.594Z,89.05
2019-01-12T16:31:45.207Z,89.11
2019-01-12T16:34:17.834Z,89.32
2019-01-12T16:36:51.224Z,89.29
2019-01-12T16:39:23.854Z,88.94
2019-01-12T16:41:58.160Z,89.19
2019-01-12T16:44:30.904Z,89.29
2019-01-12T16:47:03.583Z,89.23
2019-01-12T16:49:36.144Z,89.17
2019-01-12T16:52:08.703Z,89.37
2019-01-12T16:54:41.264Z,89.49
2019-01-12T16:57:13.867Z,89.37
2019-01-12T16:59:46.412Z,89.35
2019-01-12T17:02:19.030Z,89.34
2019-01-12T17:04:51.657Z,89.07
2019-01-12T17:07:25.285Z,89.24
2019-01-12T17:09:57.850Z,88.93
2019-01-12T17:12:30.409Z,88.86
2019-01-12T17:15:03.032Z,88.62
2019-01-12T17:17:35.742Z,88.62
2019-01-12T17:20:11.746Z,89.13
2019-01-12T17:22:45.735Z,88.68
2019-01-12T17:25:18.878Z,88.58
2019-01-12T17:27:51.499Z,88.62
2019-01-12T17:30:24.753Z,88.51
2019-01-12T17:32:57.394Z,88.74
2019-01-12T17:35:30.083Z,89.00
2019-01-12T17:38:03.135Z,88.66
2019-01-12T17:40:35.700Z,88.57
2019-01-12T17:43:08.302Z,88.65
2019-01-12T17:45:40.860Z,88.42
2019-01-12T17:48:13.625Z,88.70
2019-01-12T17:50:46.177Z,88.86
2019-01-12T17:53:18.964Z,88.89
2019-01-12T17:55:51.538Z,89.09
2019-01-12T17:58:24.159Z,88.97
2019-01-12T18:00:56.714Z,89.27
2019-01-12T18:03:29.351Z,89.59
2019-01-12T18:06:02.082Z,89.17
2019-01-12T18:08:35.973Z,89.36
2019-01-12T18:11:08.559Z,89.42
2019-01-12T18:13:41.365Z,88.22
2019-01-12T18:16:14.261Z,87.70
2019-01-12T18:18:46.865Z,88.12
2019-01-12T18:21:19.474Z,87.68
2019-01-12T18:23:52.071Z,88.13
2019-01-12T18:26:24.716Z,88.41
2019-01-12T18:28:58.336Z,87.75
2019-01-12T18:31:30.963Z,88.05
2019-01-12T18:34:03.597Z,86.46
2019-01-12T18:36:36.224Z,85.81
2019-01-12T18:39:09.648Z,84.91
2019-01-12T18:41:42.201Z,83.85
2019-01-12T18:44:14.985Z,81.67
2019-01-12T18:46:48.086Z,81.53
2019-01-12T18:49:20.661Z,81.36
2019-01-12T18:51:53.267Z,80.52
2019-01-12T18:54:25.838Z,80.11
2019-01-12T18:56:58.433Z,80.19
2019-01-12T18:59:31.071Z,79.69
2019-01-12T19:02:03.721Z,79.49
2019-01-12T19:04:36.270Z,79.04
2019-01-12T19:07:08.937Z,79.50
2019-01-12T19:09:41.543Z,78.79
2019-01-12T19:12:14.384Z,79.28
2019-01-12T19:14:47.015Z,79.22
2019-01-12T19:17:19.662Z,79.72
2019-01-12T19:19:52.293Z,78.98
2019-01-12T19:22:25.052Z,80.27
2019-01-12T19:24:57.626Z,79.85
2019-01-12T19:27:30.247Z,79.50
2019-01-12T19:30:02.976Z,80.73
2019-01-12T19:32:36.061Z,79.74
2019-01-12T19:35:08.909Z,79.88
2019-01-12T19:37:41.544Z,80.47
2019-01-12T19:40:17.502Z,81.96
2019-01-12T19:42:50.081Z,82.33
2019-01-12T19:45:22.672Z,82.27
2019-01-12T19:47:55.246Z,82.76
2019-01-12T19:50:28.472Z,83.29
2019-01-12T19:53:01.057Z,83.69
2019-01-12T19:55:33.716Z,83.73
2019-01-12T19:58:06.540Z,84.46
2019-01-12T20:00:42.941Z,84.58
2019-01-12T20:03:15.727Z,85.45
2019-01-12T20:05:48.428Z,85.03
2019-01-12T20:08:21.044Z,85.14
2019-01-12T20:10:53.744Z,85.20
2019-01-12T20:13:26.343Z,85.62
2019-01-12T20:15:58.987Z,85.26
2019-01-12T20:18:31.594Z,85.21
2019-01-12T20:21:04.277Z,85.27
2019-01-12T20:23:36.929Z,85.26
2019-01-12T20:26:09.727Z,85.81
2019-01-12T20:28:42.575Z,85.87
2019-01-12T20:32:14.446Z,85.97
2019-01-12T20:35:41.491Z,86.48
2019-01-12T20:39:04.354Z,86.91
2019-01-12T20:42:51.556Z,87.29
2019-01-12T20:46:18.724Z,88.11
2019-01-12T20:49:31.199Z,88.56
2019-01-12T20:53:14.608Z,89.06
2019-01-12T20:57:00.996Z,89.32
2019-01-12T21:00:09.082Z,89.53
2019-01-12T21:03:02.627Z,89.89
2019-01-12T21:06:11.094Z,90.20
2019-01-12T21:09:22.726Z,90.70
2019-01-12T21:13:03.248Z,90.86
2019-01-12T21:15:43.229Z,91.02
2019-01-12T21:18:15.924Z,91.06
2019-01-12T21:20:48.511Z,91.10
2019-01-12T21:23:21.153Z,91.09
2019-01-12T21:25:53.810Z,91.23
2019-01-12T21:28:26.567Z,91.19
2019-01-12T21:30:59.223Z,91.23
2019-01-12T21:33:31.803Z,91.32
2019-01-12T21:36:04.491Z,91.26
2019-01-12T21:38:37.076Z,91.29
2019-01-12T21:41:09.654Z,91.25
2019-01-12T21:43:42.271Z,91.56
2019-01-12T21:46:15.093Z,91.76
2019-01-12T21:48:47.673Z,91.61
2019-01-12T21:51:20.276Z,91.85
2019-01-12T21:53:52.887Z,91.77
2019-01-12T21:56:25.479Z,91.75
2019-01-12T21:58:58.180Z,91.72
2019-01-12T22:01:36.262Z,92.10
2019-01-12T22:04:05.546Z,92.25
2019-01-12T22:06:38.137Z,92.55
2019-01-12T22:09:12.165Z,92.70
2019-01-12T22:11:44.801Z,92.75
2019-01-12T22:14:17.559Z,92.80
2019-01-12T22:16:50.164Z,92.94
2019-01-12T22:19:22.833Z,93.12
2019-01-12T22:21:55.408Z,93.21
2019-01-12T22:24:28.045Z,93.23
2019-01-12T22:27:00.565Z,93.24
2019-01-12T22:29:33.228Z,93.19
2019-01-12T22:32:05.792Z,93.30
2019-01-12T22:34:38.382Z,93.39
2019-01-12T22:37:11.010Z,93.32
2019-01-12T22:39:43.658Z,93.41
2019-01-12T22:42:16.433Z,93.44
2019-01-12T22:44:51.272Z,93.39
2019-01-12T22:47:23.837Z,93.14
2019-01-12T22:49:56.418Z,93.10
2019-01-12T22:52:29.055Z,93.09
2019-01-12T22:55:01.622Z,93.16
2019-01-12T22:57:34.195Z,92.91
2019-01-12T23:00:31.557Z,93.09
2019-01-12T23:03:04.229Z,93.12
2019-01-12T23:05:36.886Z,93.26
2019-01-12T23:08:09.598Z,93.37
2019-01-12T23:10:42.227Z,93.28
2019-01-12T23:13:14.803Z,93.41
2019-01-12T23:15:47.451Z,93.24
2019-01-12T23:18:20.423Z,93.07
2019-01-12T23:20:52.988Z,93.05
2019-01-12T23:23:25.565Z,93.05
2019-01-12T23:25:58.189Z,93.12
2019-01-12T23:28:30.773Z,93.10
2019-01-12T23:31:03.379Z,93.44
2019-01-12T23:33:35.953Z,93.57
2019-01-12T23:36:08.505Z,93.65
2019-01-12T23:38:41.306Z,93.54
2019-01-12T23:41:13.891Z,93.69
2019-01-12T23:43:46.541Z,93.53
2019-01-12T23:46:19.298Z,93.33
2019-01-12T23:48:52.064Z,93.51
2019-01-12T23:51:24.797Z,93.39
2019-01-12T23:53:57.440Z,93.26
2019-01-12T23:56:30.041Z,93.20
2019-01-12T23:59:02.644Z,93.17
